Time;durP1;ratioP1;P1;durP2;ratioP2;P2;SDS_P1;SDS_P2;PMS_P1;PMS_P2;Temp;Humidity;BMP_temperature;BMP_pressure;BME280_temperature;BME280_humidity;BME280_pressure;Samples;Min_cycle;Max_cycle;Signal;HPM_P1;HPM_P2
2023/01/20 00:00:30;;;;;;;0.00;0.00;;;1.60;90.90;;;;;;4992087;28;20117;-67
2023/01/20 00:02:56;;;;;;;0.08;0.08;;;1.60;90.90;;;;;;4959461;28;20050;-67
2023/01/20 00:05:21;;;;;;;0.00;0.00;;;1.60;90.80;;;;;;4992156;28;20050;-67
2023/01/20 00:07:47;;;;;;;0.10;0.10;;;1.60;90.80;;;;;;4975164;28;20054;-67
2023/01/20 00:10:13;;;;;;;0.00;0.00;;;1.60;90.80;;;;;;4992760;28;20038;-67
2023/01/20 00:12:38;;;;;;;0.00;0.00;;;1.60;90.80;;;;;;4991907;28;20038;-67
2023/01/20 00:15:05;;;;;;;0.00;0.00;;;1.60;90.70;;;;;;4992710;28;20046;-67
2023/01/20 00:17:31;;;;;;;0.00;0.00;;;1.60;90.60;;;;;;4992706;28;20049;-67
2023/01/20 00:19:56;;;;;;;0.00;0.00;;;1.50;90.60;;;;;;4992711;28;20046;-67
2023/01/20 00:22:22;;;;;;;0.00;0.00;;;1.60;90.50;;;;;;4992255;28;20053;-67
2023/01/20 00:24:47;;;;;;;0.00;0.00;;;1.50;90.40;;;;;;4992698;28;20598;-67
2023/01/20 00:27:15;;;;;;;0.00;0.00;;;1.50;90.30;;;;;;4990798;28;20392;-67
2023/01/20 00:29:43;;;;;;;0.00;0.00;;;1.50;90.30;;;;;;4991747;28;20081;-68
2023/01/20 00:32:09;;;;;;;0.00;0.00;;;1.50;90.20;;;;;;4992347;28;20173;-67
2023/01/20 00:34:34;;;;;;;0.00;0.00;;;1.40;90.20;;;;;;4958371;28;20050;-68
2023/01/20 00:37:00;;;;;;;0.00;0.00;;;1.40;90.20;;;;;;4992083;28;20050;-67
2023/01/20 00:39:26;;;;;;;0.00;0.00;;;1.40;90.10;;;;;;4992117;28;20039;-67
2023/01/20 00:41:51;;;;;;;0.00;0.00;;;1.40;90.00;;;;;;4991331;28;20507;-67
2023/01/20 00:44:17;;;;;;;0.00;0.00;;;1.40;90.00;;;;;;4992449;28;20192;-67
2023/01/20 00:46:43;;;;;;;0.00;0.00;;;1.40;89.90;;;;;;4974645;28;20422;-68
2023/01/20 00:49:09;;;;;;;0.00;0.00;;;1.40;89.80;;;;;;4974923;28;20046;-67
2023/01/20 00:51:35;;;;;;;0.00;0.00;;;1.30;89.70;;;;;;4992141;28;20053;-68
2023/01/20 00:54:00;;;;;;;0.00;0.00;;;1.30;89.40;;;;;;4974394;28;20447;-67
2023/01/20 00:56:26;;;;;;;0.00;0.00;;;1.20;89.40;;;;;;4991095;28;20059;-68
2023/01/20 00:58:54;;;;;;;0.00;0.00;;;1.20;89.20;;;;;;4958463;28;20463;-68
2023/01/20 01:01:20;;;;;;;0.00;0.00;;;1.20;89.10;;;;;;4991757;28;20053;-67
2023/01/20 01:03:46;;;;;;;0.00;0.00;;;1.20;89.00;;;;;;4973908;28;20054;-67
2023/01/20 01:06:14;;;;;;;0.00;0.00;;;1.10;89.00;;;;;;4991478;28;20046;-67
2023/01/20 01:08:40;;;;;;;0.03;0.03;;;1.10;88.90;;;;;;4991314;28;20050;-67
2023/01/20 01:11:06;;;;;;;0.00;0.00;;;1.10;88.80;;;;;;4991100;28;20447;-67
2023/01/20 01:13:32;;;;;;;0.00;0.00;;;1.10;88.80;;;;;;4991713;28;20097;-67
2023/01/20 01:15:58;;;;;;;0.05;0.05;;;1.00;88.80;;;;;;4990876;28;20042;-67
2023/01/20 01:18:23;;;;;;;0.00;0.00;;;1.10;88.80;;;;;;4991422;28;20045;-68
2023/01/20 01:20:49;;;;;;;0.00;0.00;;;1.10;88.80;;;;;;4991460;28;20046;-67
2023/01/20 01:23:15;;;;;;;0.00;0.00;;;1.00;88.80;;;;;;4990835;28;20450;-67
2023/01/20 01:25:40;;;;;;;0.00;0.00;;;1.00;88.80;;;;;;4990670;28;20141;-67
2023/01/20 01:28:06;;;;;;;0.00;0.00;;;1.00;88.80;;;;;;4991243;28;20066;-67
2023/01/20 01:30:31;;;;;;;0.00;0.00;;;0.90;88.80;;;;;;4990705;28;20065;-67
2023/01/20 01:32:57;;;;;;;0.00;0.00;;;1.00;88.80;;;;;;4991290;28;20050;-67
2023/01/20 01:35:22;;;;;;;0.00;0.00;;;1.00;88.80;;;;;;4990593;28;20759;-67
2023/01/20 01:37:48;;;;;;;0.00;0.00;;;1.00;88.80;;;;;;4989885;28;20419;-67
2023/01/20 01:40:14;;;;;;;0.00;0.00;;;1.00;88.70;;;;;;4990829;28;20438;-67
2023/01/20 01:42:40;;;;;;;0.00;0.00;;;1.00;88.80;;;;;;4990381;28;20066;-67
2023/01/20 01:45:09;;;;;;;0.00;0.00;;;1.00;88.60;;;;;;4956849;28;20050;-67
2023/01/20 01:47:54;;;;;;;0.00;0.00;;;0.90;88.60;;;;;;4957242;28;20081;-67
2023/01/20 01:50:26;;;;;;;0.00;0.00;;;0.90;88.60;;;;;;4990379;28;20149;-67
2023/01/20 01:52:54;;;;;;;0.20;0.20;;;0.90;88.60;;;;;;4991122;28;20061;-67
2023/01/20 01:55:24;;;;;;;0.00;0.00;;;0.90;88.50;;;;;;4990203;28;20138;-67
2023/01/20 01:57:51;;;;;;;0.10;0.10;;;0.90;88.50;;;;;;4990927;28;20053;-67
2023/01/20 02:00:17;;;;;;;0.00;0.00;;;0.90;88.50;;;;;;4989844;28;20047;-67
2023/01/20 02:02:44;;;;;;;0.00;0.00;;;0.90;88.50;;;;;;4990419;28;20487;-67
2023/01/20 02:05:11;;;;;;;0.00;0.00;;;0.90;88.50;;;;;;4990220;28;20057;-67
2023/01/20 02:07:38;;;;;;;0.03;0.03;;;0.90;88.50;;;;;;4990579;28;20080;-67
2023/01/20 02:10:04;;;;;;;0.00;0.00;;;0.90;88.60;;;;;;4972905;28;20043;-67
2023/01/20 02:12:30;;;;;;;0.00;0.00;;;1.00;88.60;;;;;;4990147;28;20060;-67
2023/01/20 02:14:58;;;;;;;0.00;0.00;;;1.00;88.60;;;;;;4990379;28;20038;-67
2023/01/20 02:17:38;;;;;;;0.13;0.13;;;1.10;88.70;;;;;;4990435;28;20046;-67
2023/01/20 02:20:30;;;;;;;0.00;0.00;;;1.00;88.60;;;;;;4972699;28;20113;-67
2023/01/20 02:23:08;;;;;;;0.00;0.00;;;1.00;88.60;;;;;;4971767;28;20069;-67
2023/01/20 02:25:54;;;;;;;0.00;0.00;;;1.00;88.70;;;;;;4989542;28;20096;-67
2023/01/20 02:28:32;;;;;;;0.03;0.03;;;1.00;88.70;;;;;;4990299;28;20061;-67
2023/01/20 02:31:12;;;;;;;0.00;0.00;;;1.00;88.60;;;;;;4989486;28;20075;-67
2023/01/20 02:33:51;;;;;;;0.00;0.00;;;1.00;88.60;;;;;;4990199;28;20618;-67
2023/01/20 02:36:33;;;;;;;0.00;0.00;;;1.00;88.60;;;;;;4989932;28;20048;-67
2023/01/20 02:39:12;;;;;;;0.00;0.00;;;1.00;88.50;;;;;;4989677;28;20456;-67
2023/01/20 02:41:56;;;;;;;0.00;0.00;;;1.00;88.50;;;;;;4989799;28;20061;-67
2023/01/20 02:44:45;;;;;;;0.00;0.00;;;1.00;88.50;;;;;;4990053;28;20062;-67
2023/01/20 02:47:23;;;;;;;0.00;0.00;;;1.00;88.40;;;;;;4989717;28;20499;-67
2023/01/20 02:50:03;;;;;;;0.00;0.00;;;1.00;88.40;;;;;;4989706;28;20042;-67
2023/01/20 02:52:36;;;;;;;0.00;0.00;;;0.90;88.40;;;;;;4971954;28;20133;-67
2023/01/20 02:55:18;;;;;;;0.00;0.00;;;0.90;88.50;;;;;;4983915;28;20721;-67
2023/01/20 02:57:47;;;;;;;0.00;0.00;;;1.00;88.50;;;;;;4989319;28;20046;-67
2023/01/20 03:00:23;;;;;;;0.00;0.00;;;1.00;88.60;;;;;;4972023;28;20173;-67
2023/01/20 03:02:52;;;;;;;0.00;0.00;;;1.00;88.60;;;;;;4989647;28;20050;-67
2023/01/20 03:05:31;;;;;;;0.00;0.00;;;1.00;88.70;;;;;;4989498;28;20046;-67
2023/01/20 03:08:00;;;;;;;0.00;0.00;;;1.00;88.70;;;;;;4956212;28;20128;-68
2023/01/20 03:10:30;;;;;;;0.00;0.00;;;1.00;88.70;;;;;;4956363;28;20050;-67
2023/01/20 03:13:17;;;;;;;0.90;0.90;;;0.90;88.60;;;;;;4989671;28;20050;-67
2023/01/20 03:15:59;;;;;;;0.00;0.00;;;0.90;88.60;;;;;;4988760;28;20061;-67
2023/01/20 03:18:28;;;;;;;0.10;0.10;;;0.90;88.40;;;;;;4989829;28;20034;-67
2023/01/20 03:20:53;;;;;;;0.00;0.00;;;0.90;88.40;;;;;;4983762;28;20081;-67
2023/01/20 03:23:19;;;;;;;0.00;0.00;;;0.80;88.50;;;;;;4971976;28;20074;-68
2023/01/20 03:25:48;;;;;;;0.00;0.00;;;0.90;88.60;;;;;;4989348;28;20050;-67
2023/01/20 03:28:13;;;;;;;0.00;0.00;;;0.90;88.60;;;;;;4955668;28;20125;-67
2023/01/20 03:30:39;;;;;;;0.00;0.00;;;0.90;88.60;;;;;;4989930;28;20121;-67
2023/01/20 03:33:05;;;;;;;0.00;0.00;;;0.90;88.70;;;;;;4989233;28;20038;-67
2023/01/20 03:35:33;;;;;;;0.00;0.00;;;0.90;88.60;;;;;;4989650;28;20072;-67
2023/01/20 03:37:58;;;;;;;0.00;0.00;;;0.90;88.60;;;;;;4989387;28;20042;-67
2023/01/20 03:40:30;;;;;;;0.00;0.00;;;0.90;88.60;;;;;;4989042;28;20101;-68
2023/01/20 03:43:02;;;;;;;;;;;0.90;88.70;;;;;;4989590;28;20463;-67
2023/01/20 03:45:39;;;;;;;0.00;0.00;;;1.00;88.60;;;;;;4955408;28;19929;-67
2023/01/20 03:48:16;;;;;;;0.00;0.00;;;0.90;88.70;;;;;;4969904;28;20070;-67
2023/01/20 03:50:55;;;;;;;0.00;0.00;;;0.90;88.80;;;;;;4989060;28;20050;-67
2023/01/20 03:53:34;;;;;;;0.10;0.10;;;0.90;88.80;;;;;;4989336;28;20054;-67
2023/01/20 03:56:05;;;;;;;0.00;0.00;;;0.90;88.80;;;;;;4968733;28;20152;-67
2023/01/20 03:58:37;;;;;;;0.10;0.10;;;0.90;88.70;;;;;;4984820;28;20050;-67
2023/01/20 04:01:07;;;;;;;0.00;0.00;;;0.90;88.70;;;;;;4989546;28;20483;-67
2023/01/20 04:03:37;;;;;;;0.00;0.00;;;0.90;88.80;;;;;;4993013;28;20039;-67
2023/01/20 04:06:07;;;;;;;0.00;0.00;;;0.90;88.90;;;;;;4959306;28;20088;-67
2023/01/20 04:08:42;;;;;;;0.00;0.00;;;0.80;88.90;;;;;;4992913;28;20128;-67
2023/01/20 04:11:08;;;;;;;0.52;0.52;;;0.90;89.00;;;;;;4991874;28;20039;-67
2023/01/20 04:13:34;;;;;;;0.00;0.00;;;0.90;89.00;;;;;;4974877;28;20046;-67
2023/01/20 04:16:02;;;;;;;0.85;0.85;;;0.80;89.00;;;;;;4992580;28;20055;-67
2023/01/20 04:18:28;;;;;;;0.10;0.10;;;0.80;89.20;;;;;;4992200;28;20046;-67
2023/01/20 04:21:02;;;;;;;0.00;0.00;;;0.90;89.20;;;;;;4992592;28;20050;-67
2023/01/20 04:23:34;;;;;;;0.00;0.00;;;0.80;89.30;;;;;;4975187;28;20078;-67
2023/01/20 04:25:59;;;;;;;0.20;0.20;;;0.80;89.40;;;;;;4992191;28;20117;-67
2023/01/20 04:28:25;;;;;;;0.00;0.00;;;0.80;89.50;;;;;;4992032;28;20125;-67
2023/01/20 04:30:51;;;;;;;0.00;0.00;;;0.80;89.40;;;;;;4992496;28;20518;-67
2023/01/20 04:33:16;;;;;;;0.20;0.20;;;0.80;89.50;;;;;;4991974;28;20042;-67
2023/01/20 04:35:42;;;;;;;0.10;0.10;;;0.80;89.60;;;;;;4992041;28;20527;-67
2023/01/20 04:38:08;;;;;;;0.00;0.00;;;0.80;89.60;;;;;;4974800;28;20125;-67
2023/01/20 04:40:33;;;;;;;0.10;0.10;;;0.80;89.50;;;;;;4991968;28;20549;-67
2023/01/20 04:42:59;;;;;;;0.00;0.00;;;0.80;89.70;;;;;;4991880;28;20136;-67
2023/01/20 04:45:24;;;;;;;0.00;0.00;;;0.80;89.70;;;;;;4973344;28;20085;-67
2023/01/20 04:47:50;;;;;;;0.00;0.00;;;0.80;89.70;;;;;;4991864;28;20104;-67
2023/01/20 04:50:16;;;;;;;0.03;0.03;;;0.90;89.80;;;;;;4974882;28;20051;-67
2023/01/20 04:52:42;;;;;;;0.05;0.05;;;0.80;89.80;;;;;;4991445;28;20088;-67
2023/01/20 04:55:08;;;;;;;0.10;0.10;;;0.80;89.80;;;;;;4991929;28;20141;-67
2023/01/20 04:57:34;;;;;;;0.00;0.00;;;0.70;89.80;;;;;;4991390;28;20042;-66
2023/01/20 04:59:59;;;;;;;0.00;0.00;;;0.70;89.90;;;;;;4992087;28;20045;-66
2023/01/20 05:02:25;;;;;;;0.10;0.10;;;0.70;89.80;;;;;;4991059;28;20385;-67
2023/01/20 05:04:51;;;;;;;0.35;0.35;;;0.70;89.70;;;;;;4991845;28;20104;-67
2023/01/20 05:07:16;;;;;;;0.00;0.00;;;0.70;89.80;;;;;;4991319;28;20046;-67
2023/01/20 05:09:42;;;;;;;0.00;0.00;;;0.70;89.70;;;;;;4991884;28;20431;-66
2023/01/20 05:12:07;;;;;;;0.00;0.00;;;0.70;89.80;;;;;;4990849;28;20089;-66
2023/01/20 05:14:33;;;;;;;0.30;0.30;;;0.60;89.80;;;;;;4991031;28;20038;-66
2023/01/20 05:16:58;;;;;;;0.00;0.00;;;0.60;89.80;;;;;;4957115;28;20046;-66
2023/01/20 05:19:24;;;;;;;0.10;0.10;;;0.60;89.80;;;;;;4974355;28;20050;-66
2023/01/20 05:21:50;;;;;;;5.38;1.00;;;0.60;89.80;;;;;;4990152;28;20038;-67
2023/01/20 05:24:15;;;;;;;0.00;0.00;;;0.60;89.80;;;;;;4990420;28;20046;-67
2023/01/20 05:26:41;;;;;;;0.98;0.98;;;0.60;89.90;;;;;;4989840;28;20639;-66
2023/01/20 05:29:08;;;;;;;0.00;0.00;;;0.60;89.90;;;;;;4988403;28;20092;-66
2023/01/20 05:31:33;;;;;;;1.38;1.10;;;0.70;90.00;;;;;;4991096;28;20065;-66
2023/01/20 05:33:59;;;;;;;0.03;0.03;;;0.70;90.00;;;;;;4974035;28;20042;-67
2023/01/20 05:36:27;;;;;;;0.00;0.00;;;0.70;90.10;;;;;;4990804;28;20122;-66
2023/01/20 05:38:53;;;;;;;0.10;0.10;;;0.70;90.10;;;;;;4990661;28;20419;-67
2023/01/20 05:41:18;;;;;;;0.10;0.10;;;0.70;90.20;;;;;;4979755;28;20050;-67
2023/01/20 05:43:44;;;;;;;0.00;0.00;;;0.70;90.40;;;;;;4982292;28;20535;-67
2023/01/20 05:46:10;;;;;;;0.00;0.00;;;0.70;90.60;;;;;;4971726;28;20062;-66
2023/01/20 05:48:35;;;;;;;0.00;0.00;;;0.70;90.60;;;;;;4990413;28;20052;-66
2023/01/20 05:51:01;;;;;;;0.00;0.00;;;0.70;90.70;;;;;;4990453;28;20050;-67
2023/01/20 05:53:26;;;;;;;0.00;0.00;;;0.70;90.70;;;;;;4971393;28;20057;-66
2023/01/20 05:56:03;;;;;;;0.00;0.00;;;0.80;90.90;;;;;;4979196;28;20145;-67
2023/01/20 05:58:29;;;;;;;0.22;0.22;;;0.80;90.90;;;;;;4990097;28;20069;-66
2023/01/20 06:01:02;;;;;;;0.15;0.15;;;0.80;90.90;;;;;;4989604;28;20134;-66
2023/01/20 06:03:28;;;;;;;0.00;0.00;;;0.80;91.00;;;;;;4970833;28;20046;-67
2023/01/20 06:06:02;;;;;;;0.20;0.20;;;0.80;91.00;;;;;;4988718;28;20057;-66
2023/01/20 06:08:28;;;;;;;0.00;0.00;;;0.80;91.00;;;;;;4989046;28;20045;-67
2023/01/20 06:10:53;;;;;;;1.85;1.13;;;0.80;90.90;;;;;;4986732;28;20054;-66
2023/01/20 06:13:19;;;;;;;0.10;0.10;;;0.80;90.90;;;;;;4984860;28;20046;-67
2023/01/20 06:15:52;;;;;;;0.00;0.00;;;0.80;90.90;;;;;;4984509;28;20102;-65
2023/01/20 06:18:19;;;;;;;0.10;0.10;;;0.80;91.00;;;;;;4988665;28;20053;-66
2023/01/20 06:20:44;;;;;;;0.22;0.22;;;0.80;91.00;;;;;;4986045;28;20042;-67
2023/01/20 06:23:10;;;;;;;0.10;0.10;;;0.80;91.10;;;;;;4987696;28;20089;-67
2023/01/20 06:25:36;;;;;;;0.05;0.05;;;0.90;91.10;;;;;;4986694;28;20157;-66
2023/01/20 06:28:02;;;;;;;0.00;0.00;;;0.90;91.00;;;;;;4970272;28;20053;-67
2023/01/20 06:30:27;;;;;;;0.00;0.00;;;0.90;91.10;;;;;;4988606;28;20122;-66
2023/01/20 06:32:53;;;;;;;0.00;0.00;;;0.90;91.10;;;;;;4988602;28;20129;-67
2023/01/20 06:35:19;;;;;;;0.10;0.10;;;0.90;91.10;;;;;;4987960;28;20054;-66
2023/01/20 06:37:45;;;;;;;0.20;0.20;;;0.90;91.20;;;;;;4970636;28;20053;-66
2023/01/20 06:40:11;;;;;;;0.00;0.00;;;0.90;91.30;;;;;;4987042;28;20495;-69
2023/01/20 06:42:37;;;;;;;0.03;0.03;;;0.90;91.50;;;;;;4986354;28;20069;-67
2023/01/20 06:45:03;;;;;;;0.22;0.22;;;0.90;91.50;;;;;;4986838;28;20046;-67
2023/01/20 06:47:28;;;;;;;1.88;0.70;;;0.90;91.50;;;;;;4969478;28;20046;-67
2023/01/20 06:49:54;;;;;;;0.00;0.00;;;0.90;91.80;;;;;;4968729;28;20512;-67
2023/01/20 06:52:19;;;;;;;0.10;0.10;;;1.00;91.90;;;;;;4953469;28;20792;-65
2023/01/20 06:54:45;;;;;;;2.45;0.55;;;1.00;92.00;;;;;;4987438;28;20051;-66
2023/01/20 06:57:10;;;;;;;0.10;0.10;;;1.20;92.30;;;;;;4986420;28;20118;-67
2023/01/20 06:59:36;;;;;;;0.08;0.08;;;1.30;92.40;;;;;;4987042;28;20411;-67
2023/01/20 07:02:01;;;;;;;1.10;1.05;;;1.40;92.40;;;;;;4986461;28;20419;-67
2023/01/20 07:04:27;;;;;;;1.75;1.13;;;1.40;92.30;;;;;;4986472;28;20066;-66
2023/01/20 07:06:53;;;;;;;0.00;0.00;;;1.40;92.10;;;;;;4985731;28;20050;-66
2023/01/20 07:09:18;;;;;;;0.10;0.10;;;1.40;92.10;;;;;;4983712;28;20054;-67
2023/01/20 07:11:44;;;;;;;0.30;0.30;;;1.30;92.00;;;;;;4986395;28;21352;-67
2023/01/20 07:14:09;;;;;;;0.50;0.50;;;1.30;92.10;;;;;;4986618;28;20062;-67
2023/01/20 07:16:35;;;;;;;0.10;0.10;;;1.30;91.90;;;;;;4969201;28;20423;-66
2023/01/20 07:19:01;;;;;;;0.52;0.52;;;1.30;92.00;;;;;;4988535;28;20073;-67
2023/01/20 07:21:27;;;;;;;0.00;0.00;;;1.30;92.10;;;;;;4987992;28;20070;-69
2023/01/20 07:23:53;;;;;;;1.40;1.35;;;1.40;92.00;;;;;;4987700;28;20050;-69
2023/01/20 07:26:20;;;;;;;0.00;0.00;;;1.40;92.00;;;;;;4985038;28;20062;-69
2023/01/20 07:28:47;;;;;;;0.00;0.00;;;1.40;92.00;;;;;;4989631;28;20039;-69
2023/01/20 07:31:20;;;;;;;0.08;0.08;;;1.30;91.90;;;;;;4989549;28;20451;-68
2023/01/20 07:33:47;;;;;;;1.35;0.70;;;1.20;92.10;;;;;;4969237;28;20487;-68
2023/01/20 07:36:14;;;;;;;0.10;0.10;;;1.30;92.10;;;;;;4990511;28;20053;-67
2023/01/20 07:38:40;;;;;;;0.10;0.10;;;1.70;93.20;;;;;;4990403;28;20062;-66
2023/01/20 07:41:10;;;;;;;0.00;0.00;;;2.10;92.50;;;;;;4992103;28;20038;-66
2023/01/20 07:43:36;;;;;;;0.10;0.10;;;2.10;92.30;;;;;;4991460;28;20137;-65
2023/01/20 07:46:04;;;;;;;0.75;0.73;;;1.90;91.70;;;;;;4991637;28;20121;-65
2023/01/20 07:48:31;;;;;;;0.10;0.10;;;1.70;91.60;;;;;;4973742;28;20091;-66
2023/01/20 07:51:04;;;;;;;0.73;0.73;;;1.70;91.70;;;;;;4985747;28;20046;-69
2023/01/20 07:53:31;;;;;;;0.10;0.10;;;1.60;91.70;;;;;;4981944;28;20712;-69
2023/01/20 07:56:03;;;;;;;0.10;0.10;;;1.50;91.70;;;;;;4984889;28;20392;-68
2023/01/20 07:58:29;;;;;;;;;;;1.50;91.80;;;;;;4991471;28;20510;-68
2023/01/20 08:00:54;;;;;;;0.00;0.00;;;1.50;91.80;;;;;;4957209;28;19933;-68
2023/01/20 08:03:20;;;;;;;0.30;0.30;;;1.40;91.80;;;;;;4989550;28;20129;-69
2023/01/20 08:05:46;;;;;;;0.28;0.28;;;1.40;91.60;;;;;;4990333;28;20081;-69
2023/01/20 08:08:11;;;;;;;0.10;0.10;;;1.40;91.90;;;;;;4972836;28;20104;-69
2023/01/20 08:10:37;;;;;;;0.10;0.10;;;1.40;91.90;;;;;;4989812;28;20046;-69
2023/01/20 08:13:03;;;;;;;0.30;0.30;;;1.40;92.00;;;;;;4990417;28;20054;-69
2023/01/20 08:15:28;;;;;;;5.38;2.28;;;1.40;91.90;;;;;;4990096;28;20088;-68
2023/01/20 08:17:54;;;;;;;0.10;0.10;;;1.40;92.00;;;;;;4990644;28;20160;-68
2023/01/20 08:20:21;;;;;;;0.03;0.03;;;1.40;92.00;;;;;;4990241;28;20042;-69
2023/01/20 08:22:46;;;;;;;0.00;0.00;;;1.50;91.80;;;;;;4972126;28;20101;-69
2023/01/20 08:25:12;;;;;;;0.00;0.00;;;1.40;91.70;;;;;;4988968;28;20774;-68
2023/01/20 08:27:37;;;;;;;0.10;0.10;;;1.40;91.80;;;;;;4989752;28;20076;-69
2023/01/20 08:30:03;;;;;;;0.00;0.00;;;1.40;91.80;;;;;;4989621;28;20121;-68
2023/01/20 08:32:29;;;;;;;0.20;0.20;;;1.40;91.90;;;;;;4969689;28;20046;-68
2023/01/20 08:34:55;;;;;;;5.38;2.28;;;1.30;92.00;;;;;;4971289;28;20419;-68
2023/01/20 08:37:20;;;;;;;0.40;0.40;;;1.40;92.00;;;;;;4989838;28;20090;-67
2023/01/20 08:39:46;;;;;;;0.30;0.30;;;1.30;92.00;;;;;;4990640;28;20114;-71
2023/01/20 08:42:12;;;;;;;0.10;0.10;;;1.40;92.10;;;;;;4990961;28;20102;-72
2023/01/20 08:44:37;;;;;;;0.00;0.00;;;1.30;92.10;;;;;;4990391;28;20104;-71
2023/01/20 08:47:03;;;;;;;0.00;0.00;;;1.40;92.10;;;;;;4988555;28;20051;-69
2023/01/20 08:49:29;;;;;;;0.00;0.00;;;1.40;92.20;;;;;;4983764;28;20046;-66
2023/01/20 08:51:55;;;;;;;0.70;0.57;;;1.40;92.10;;;;;;4990101;28;20538;-66
2023/01/20 08:54:21;;;;;;;1.27;1.27;;;1.40;92.20;;;;;;4987377;28;20042;-66
2023/01/20 08:56:51;;;;;;;2.28;2.13;;;1.50;92.10;;;;;;4991283;28;20038;-66
2023/01/20 08:59:18;;;;;;;0.68;0.68;;;1.50;92.00;;;;;;4989426;28;20045;-66
2023/01/20 09:01:43;;;;;;;0.00;0.00;;;1.40;92.10;;;;;;4987500;28;20042;-66
2023/01/20 09:04:09;;;;;;;0.77;0.77;;;1.50;92.10;;;;;;4973655;28;20522;-66
2023/01/20 09:06:49;;;;;;;0.05;0.05;;;1.50;91.90;;;;;;4990558;28;20100;-66
2023/01/20 09:09:16;;;;;;;0.55;0.55;;;1.50;92.00;;;;;;4986830;28;20101;-66
2023/01/20 09:11:49;;;;;;;0.65;0.65;;;1.50;92.00;;;;;;4982342;28;20051;-66
2023/01/20 09:14:17;;;;;;;0.10;0.10;;;1.50;92.00;;;;;;4983433;28;20098;-66
2023/01/20 09:16:42;;;;;;;0.35;0.35;;;1.50;92.00;;;;;;4969048;28;20515;-66
2023/01/20 09:19:08;;;;;;;0.20;0.20;;;1.60;91.90;;;;;;4984381;28;20097;-66
2023/01/20 09:21:33;;;;;;;1.35;0.52;;;1.60;91.90;;;;;;4990644;28;20077;-66
2023/01/20 09:23:59;;;;;;;0.10;0.10;;;1.50;91.90;;;;;;4990591;28;20042;-67
2023/01/20 09:26:24;;;;;;;0.00;0.00;;;1.60;92.00;;;;;;4990179;28;20058;-67
2023/01/20 09:28:50;;;;;;;0.00;0.00;;;1.50;91.80;;;;;;4973409;28;20046;-67
2023/01/20 09:31:15;;;;;;;2.33;1.52;;;1.60;91.90;;;;;;4990428;28;20535;-67
2023/01/20 09:33:42;;;;;;;0.70;0.70;;;1.60;92.00;;;;;;4990849;28;20046;-68
2023/01/20 09:36:09;;;;;;;0.10;0.10;;;1.60;91.90;;;;;;4990711;28;20174;-67
2023/01/20 09:44:33;;;;;;;0.20;0.20;;;1.60;91.80;;;;;;4974934;28;20054;-67
2023/01/20 09:47:24;;;;;;;1.05;1.00;;;1.60;91.80;;;;;;4984744;28;20134;-68
2023/01/20 09:53:15;;;;;;;0.10;0.10;;;1.70;91.80;;;;;;4971243;28;20455;-67
2023/01/20 09:55:46;;;;;;;1.90;1.80;;;1.70;91.70;;;;;;4970542;28;20377;-68
2023/01/20 09:58:44;;;;;;;0.10;0.10;;;1.70;91.80;;;;;;4969913;28;20097;-67
2023/01/20 10:01:17;;;;;;;0.38;0.38;;;1.70;91.70;;;;;;4970933;28;20137;-67
2023/01/20 10:04:08;;;;;;;0.15;0.15;;;1.70;91.90;;;;;;4972797;28;20051;-68
2023/01/20 10:06:44;;;;;;;0.00;0.00;;;1.70;91.90;;;;;;4963282;28;20050;-68
2023/01/20 10:09:42;;;;;;;0.30;0.30;;;1.70;91.90;;;;;;5008952;23;20076;-68
2023/01/20 10:12:34;;;;;;;3.78;1.48;;;1.70;91.80;;;;;;5008173;28;20049;-67
2023/01/20 10:15:07;;;;;;;0.67;0.67;;;1.80;91.90;;;;;;5018203;28;20498;-67
2023/01/20 10:17:42;;;;;;;2.80;1.20;;;1.80;91.90;;;;;;5008449;28;20725;-67
2023/01/20 10:20:37;;;;;;;1.45;1.35;;;1.90;92.00;;;;;;5008725;28;20164;-67
2023/01/20 10:23:26;;;;;;;0.13;0.13;;;1.90;91.90;;;;;;4998899;28;20529;-67
2023/01/20 10:26:15;;;;;;;0.10;0.10;;;1.90;91.90;;;;;;5008515;28;20054;-67
2023/01/20 10:28:45;;;;;;;0.05;0.05;;;2.00;91.90;;;;;;4989966;28;20050;-67
2023/01/20 10:31:16;;;;;;;0.10;0.10;;;2.10;91.80;;;;;;4972250;28;20149;-67
2023/01/20 10:33:43;;;;;;;3.40;1.33;;;1.90;91.70;;;;;;5001110;28;20510;-67
2023/01/20 10:36:20;;;;;;;0.10;0.10;;;2.00;91.70;;;;;;4997265;28;20340;-67
2023/01/20 10:39:02;;;;;;;1.10;0.85;;;2.00;91.60;;;;;;4992959;28;20610;-67
2023/01/20 10:41:40;;;;;;;0.00;0.00;;;2.00;91.70;;;;;;4989363;28;20133;-67
2023/01/20 10:44:12;;;;;;;0.30;0.30;;;2.00;91.60;;;;;;4994827;28;20550;-67
2023/01/20 10:46:45;;;;;;;0.10;0.10;;;2.10;91.70;;;;;;5009196;28;20061;-67
2023/01/20 10:49:25;;;;;;;0.28;0.28;;;2.10;91.70;;;;;;5003400;28;20045;-67
2023/01/20 10:52:18;;;;;;;0.10;0.10;;;2.10;91.40;;;;;;5002628;28;20053;-67
2023/01/20 10:55:14;;;;;;;0.45;0.45;;;2.00;91.50;;;;;;4997122;28;20053;-67
2023/01/20 10:57:39;;;;;;;1.35;0.88;;;2.00;91.50;;;;;;4979474;28;20070;-67
2023/01/20 11:00:16;;;;;;;0.35;0.35;;;2.10;91.40;;;;;;4988214;28;20053;-67
2023/01/20 11:02:42;;;;;;;0.10;0.10;;;2.10;91.30;;;;;;4978093;28;20051;-67
2023/01/20 11:05:19;;;;;;;0.10;0.10;;;2.10;91.50;;;;;;4984227;28;20054;-68
2023/01/20 11:07:48;;;;;;;0.88;0.82;;;2.10;91.40;;;;;;4987388;28;20462;-67
2023/01/20 11:10:13;;;;;;;0.43;0.43;;;2.20;91.40;;;;;;4990826;28;20050;-67
2023/01/20 11:12:41;;;;;;;0.10;0.10;;;2.20;91.30;;;;;;4995364;28;20120;-67
2023/01/20 11:15:19;;;;;;;0.10;0.10;;;2.20;91.40;;;;;;4994975;28;20038;-67
2023/01/20 11:17:45;;;;;;;0.05;0.05;;;2.20;91.40;;;;;;4995559;28;20120;-67
2023/01/20 11:20:19;;;;;;;0.10;0.10;;;2.20;91.50;;;;;;4995687;28;20046;-67
2023/01/20 11:22:47;;;;;;;0.50;0.50;;;2.20;91.40;;;;;;4995489;28;20061;-67
2023/01/20 11:25:31;;;;;;;0.10;0.10;;;2.30;91.40;;;;;;5009992;28;20073;-67
2023/01/20 11:27:57;;;;;;;0.22;0.22;;;2.30;91.30;;;;;;4995743;28;20495;-67
2023/01/20 11:30:27;;;;;;;0.45;0.45;;;2.30;91.30;;;;;;5010729;28;20034;-67
2023/01/20 11:33:19;;;;;;;0.25;0.25;;;2.30;91.30;;;;;;4991818;28;20057;-68
2023/01/20 11:36:06;;;;;;;0.10;0.10;;;2.40;91.30;;;;;;4982376;28;20065;-68
2023/01/20 11:38:53;;;;;;;0.10;0.10;;;2.40;91.10;;;;;;4980848;28;20058;-67
2023/01/20 11:41:19;;;;;;;4.18;2.72;;;2.40;91.10;;;;;;4977700;28;20857;-68
2023/01/20 11:43:46;;;;;;;1.20;1.10;;;2.50;91.00;;;;;;4981785;28;20038;-67
2023/01/20 11:46:22;;;;;;;0.52;0.52;;;2.50;91.00;;;;;;4975478;28;20070;-67
2023/01/20 11:48:48;;;;;;;0.00;0.00;;;2.50;90.90;;;;;;4979451;28;20275;-67
2023/01/20 11:51:20;;;;;;;0.35;0.35;;;2.50;90.90;;;;;;4975742;28;20057;-67
2023/01/20 11:53:46;;;;;;;0.15;0.15;;;2.50;90.80;;;;;;4975157;28;20043;-67
2023/01/20 11:56:23;;;;;;;0.00;0.00;;;2.50;90.70;;;;;;5002988;28;20121;-66
2023/01/20 11:58:56;;;;;;;0.60;0.60;;;2.50;90.70;;;;;;4991290;28;20079;-66
2023/01/20 12:01:27;;;;;;;0.15;0.15;;;2.50;90.70;;;;;;4988860;28;20062;-67
2023/01/20 12:04:24;;;;;;;1.60;1.50;;;2.50;90.70;;;;;;4994836;28;20454;-66
2023/01/20 12:07:06;;;;;;;0.10;0.10;;;2.60;90.60;;;;;;4994670;28;20173;-67
2023/01/20 12:09:37;;;;;;;0.28;0.28;;;2.60;90.70;;;;;;4994657;28;20069;-67
2023/01/20 12:12:20;;;;;;;0.10;0.10;;;2.70;90.60;;;;;;4994709;28;20093;-67
2023/01/20 12:15:18;;;;;;;0.00;0.00;;;2.60;90.50;;;;;;4995308;28;20657;-67
2023/01/20 12:17:53;;;;;;;1.10;0.98;;;2.70;90.60;;;;;;4986393;28;20121;-67
2023/01/20 12:20:32;;;;;;;0.57;0.57;;;2.70;90.50;;;;;;4991798;28;20130;-67
2023/01/20 12:23:32;;;;;;;0.63;0.63;;;2.60;90.40;;;;;;4991721;28;20104;-68
2023/01/20 12:26:03;;;;;;;0.10;0.10;;;2.70;90.40;;;;;;4990654;28;20066;-67
2023/01/20 12:28:41;;;;;;;0.20;0.20;;;2.70;90.40;;;;;;4991501;28;20077;-67
2023/01/20 12:31:09;;;;;;;0.00;0.00;;;2.70;90.40;;;;;;4972641;28;20429;-67
2023/01/20 12:33:41;;;;;;;0.00;0.00;;;2.70;90.30;;;;;;4972583;28;20046;-67
2023/01/20 12:36:32;;;;;;;0.00;0.00;;;2.70;90.30;;;;;;4997984;28;20050;-67
2023/01/20 12:39:18;;;;;;;0.10;0.10;;;2.70;90.20;;;;;;5006030;28;20094;-67
2023/01/20 12:41:57;;;;;;;0.10;0.10;;;2.80;90.30;;;;;;4991647;28;20170;-67
2023/01/20 12:44:34;;;;;;;0.00;0.00;;;2.80;90.10;;;;;;4989865;28;20047;-67
2023/01/20 12:47:32;;;;;;;0.10;0.10;;;2.80;90.10;;;;;;4980253;28;20054;-67
2023/01/20 12:50:17;;;;;;;0.03;0.03;;;2.80;90.10;;;;;;4991450;28;20100;-67
2023/01/20 12:52:57;;;;;;;1.65;1.48;;;2.80;90.10;;;;;;4972553;28;20050;-67
2023/01/20 12:55:41;;;;;;;0.73;0.70;;;2.80;90.00;;;;;;4971680;28;20412;-67
2023/01/20 12:58:23;;;;;;;0.00;0.00;;;2.80;90.00;;;;;;4971936;28;20496;-67
2023/01/20 13:01:05;;;;;;;0.00;0.00;;;2.80;90.00;;;;;;4971837;28;20085;-67
2023/01/20 13:04:00;;;;;;;0.00;0.00;;;2.90;90.00;;;;;;4982025;28;20471;-67
2023/01/20 13:06:34;;;;;;;0.00;0.00;;;2.80;89.90;;;;;;4987041;28;20142;-67
2023/01/20 13:09:03;;;;;;;0.00;0.00;;;2.80;89.90;;;;;;4993436;28;20054;-67
2023/01/20 13:11:57;;;;;;;2.90;1.00;;;2.90;89.90;;;;;;5010056;28;20137;-67
2023/01/20 13:14:40;;;;;;;0.10;0.10;;;2.80;89.80;;;;;;4997234;28;20125;-67
2023/01/20 13:17:20;;;;;;;0.00;0.00;;;3.30;90.70;;;;;;4991037;28;20081;-67
2023/01/20 13:19:48;;;;;;;0.08;0.08;;;3.30;90.50;;;;;;5002803;28;20054;-66
2023/01/20 13:22:24;;;;;;;0.45;0.45;;;3.20;90.30;;;;;;4989716;28;20061;-66
2023/01/20 13:24:54;;;;;;;0.30;0.30;;;3.10;90.10;;;;;;4989848;28;20046;-66